^^
Saratoga-Weather Station Historical Data
Daily Summary for November 13, 2020 Units:  Both    English   Metric
Daily Weekly Monthly Yearly Custom
  High: Low: Average:
Temperature: 58.8 °F /  14.9 °C 40.1 °F /  4.5 °C 47.5 °F /  8.6 °C
Dew Point: 52.9 °F /  11.6 °C 39 °F /  3.9 °C 45.5 °F /  7.5 °C
Humidity: 97% 78% 93%
Wind Speed: 4mph /  6.4km/h - 0.3mph /  0.5km/h
Wind Gust: 8mph /  12.9km/h - -
Wind- - SE
Pressure: 30.1 in /  1020.7 hPa 30 in /  1017.3 hPa -
Precipitation: 0 in /  0.0 mm    
Historical Graphs
 
 
Tabular Data for November 13, 2020
Time Temperature Dew Point Pressure Wind Wind Speed Wind Gust Humidity Rainfall Rate (Hourly) solar
00:04 40.8 °F /  4.9 °C 39.7 °F /  4.3 °C 30.1in /  1020.7hPa ESE 0.9mph /  1.4km/h 1mph /  1.6km/h 96% 0in /  0.0mm 0 W/m2
00:09 41.2 °F /  5.1 °C 40.1 °F /  4.5 °C 30.1in /  1020.7hPa ESE 0.9mph /  1.4km/h 1mph /  1.6km/h 96% 0in /  0.0mm 0 W/m2
00:14 41.2 °F /  5.1 °C 40.1 °F /  4.5 °C 30.1in /  1020.7hPa Calm     96% 0in /  0.0mm 0 W/m2
00:19 41.4 °F /  5.2 °C 40.3 °F /  4.6 °C 30.1in /  1020.7hPa Calm     96% 0in /  0.0mm 0 W/m2
00:24 41.4 °F /  5.2 °C 40.3 °F /  4.6 °C 30.1in /  1020.7hPa Calm     96% 0in /  0.0mm 0 W/m2
00:29 41.5 °F /  5.3 °C 40.5 °F /  4.7 °C 30.1in /  1020.7hPa Calm     96% 0in /  0.0mm 0 W/m2
00:34 41.7 °F /  5.4 °C 40.6 °F /  4.8 °C 30.1in /  1020.7hPa Calm     96% 0in /  0.0mm 0 W/m2
00:39 41.7 °F /  5.4 °C 40.6 °F /  4.8 °C 30.1in /  1020.7hPa Calm     96% 0in /  0.0mm 0 W/m2
00:44 41.9 °F /  5.5 °C 40.8 °F /  4.9 °C 30.1in /  1020.3hPa Calm     96% 0in /  0.0mm 0 W/m2
00:49 41.9 °F /  5.5 °C 40.8 °F /  4.9 °C 30.1in /  1020.7hPa Calm     96% 0in /  0.0mm 0 W/m2
00:54 41.9 °F /  5.5 °C 40.8 °F /  4.9 °C 30.1in /  1020.3hPa Calm     96% 0in /  0.0mm 0 W/m2
00:59 41.7 °F /  5.4 °C 40.6 °F /  4.8 °C 30.1in /  1020.3hPa Calm     96% 0in /  0.0mm 0 W/m2
01:04 41.5 °F /  5.3 °C 40.5 °F /  4.7 °C 30.1in /  1020.3hPa Calm     96% 0in /  0.0mm 0 W/m2
01:09 41.4 °F /  5.2 °C 40.3 °F /  4.6 °C 30.1in /  1020.3hPa Calm     96% 0in /  0.0mm 0 W/m2
01:14 41.2 °F /  5.1 °C 40.1 °F /  4.5 °C 30.1in /  1020.3hPa Calm     96% 0in /  0.0mm 0 W/m2
01:19 40.8 °F /  4.9 °C 39.7 °F /  4.3 °C 30.1in /  1020.3hPa Calm     96% 0in /  0.0mm 0 W/m2
01:24 40.6 °F /  4.8 °C 39.6 °F /  4.2 °C 30.1in /  1020.3hPa Calm     96% 0in /  0.0mm 0 W/m2
01:29 40.5 °F /  4.7 °C 39.4 °F /  4.1 °C 30.1in /  1020.7hPa Calm     96% 0in /  0.0mm 0 W/m2
01:34 40.5 °F /  4.7 °C 39.4 °F /  4.1 °C 30.1in /  1020.3hPa Calm     96% 0in /  0.0mm 0 W/m2
01:39 40.3 °F /  4.6 °C 39.2 °F /  4 °C 30.1in /  1020.3hPa Calm     96% 0in /  0.0mm 0 W/m2
01:44 40.3 °F /  4.6 °C 39.2 °F /  4 °C 30.1in /  1020.3hPa Calm     96% 0in /  0.0mm 0 W/m2
01:49 40.1 °F /  4.5 °C 39 °F /  3.9 °C 30.1in /  1020.3hPa Calm     96% 0in /  0.0mm 0 W/m2
01:54 40.3 °F /  4.6 °C 39.2 °F /  4 °C 30.1in /  1020.3hPa Calm     96% 0in /  0.0mm 0 W/m2
01:59 40.3 °F /  4.6 °C 39.2 °F /  4 °C 30.1in /  1020.3hPa Calm     96% 0in /  0.0mm 0 W/m2
02:04 40.3 °F /  4.6 °C 39.2 °F /  4 °C 30.1in /  1020.0hPa Calm     96% 0in /  0.0mm 0 W/m2
02:09 40.5 °F /  4.7 °C 39.4 °F /  4.1 °C 30.1in /  1020.0hPa Calm     96% 0in /  0.0mm 0 W/m2
02:14 40.5 °F /  4.7 °C 39.4 °F /  4.1 °C 30.1in /  1020.0hPa Calm     96% 0in /  0.0mm 0 W/m2
02:19 40.6 °F /  4.8 °C 39.6 °F /  4.2 °C 30.1in /  1020.0hPa Calm     96% 0in /  0.0mm 0 W/m2
02:24 40.6 °F /  4.8 °C 39.6 °F /  4.2 °C 30.1in /  1020.0hPa Calm     96% 0in /  0.0mm 0 W/m2
02:29 40.5 °F /  4.7 °C 39.4 °F /  4.1 °C 30.1in /  1020.0hPa Calm     96% 0in /  0.0mm 0 W/m2
02:34 40.5 °F /  4.7 °C 39.4 °F /  4.1 °C 30.1in /  1020.0hPa Calm     96% 0in /  0.0mm 0 W/m2
02:39 40.5 °F /  4.7 °C 39.4 °F /  4.1 °C 30.1in /  1020.0hPa Calm     96% 0in /  0.0mm 0 W/m2
02:44 40.5 °F /  4.7 °C 39.4 °F /  4.1 °C 30.1in /  1020.0hPa Calm     96% 0in /  0.0mm 0 W/m2
02:49 40.5 °F /  4.7 °C 39.4 °F /  4.1 °C 30.1in /  1020.0hPa Calm     96% 0in /  0.0mm 0 W/m2
02:54 40.6 °F /  4.8 °C 39.6 °F /  4.2 °C 30.1in /  1020.0hPa Calm     96% 0in /  0.0mm 0 W/m2
02:59 40.6 °F /  4.8 °C 39.6 °F /  4.2 °C 30.1in /  1020.0hPa Calm     96% 0in /  0.0mm 0 W/m2
03:04 40.6 °F /  4.8 °C 39.6 °F /  4.2 °C 30.1in /  1020.0hPa Calm     96% 0in /  0.0mm 0 W/m2
03:09 40.8 °F /  4.9 °C 39.7 °F /  4.3 °C 30.1in /  1020.0hPa Calm     96% 0in /  0.0mm 0 W/m2
03:14 40.8 °F /  4.9 °C 39.7 °F /  4.3 °C 30.1in /  1019.6hPa Calm     96% 0in /  0.0mm 0 W/m2
03:19 41 °F /  5 °C 39.9 °F /  4.4 °C 30.1in /  1019.6hPa Calm     96% 0in /  0.0mm 0 W/m2
03:24 41 °F /  5 °C 39.9 °F /  4.4 °C 30.1in /  1019.6hPa Calm     96% 0in /  0.0mm 0 W/m2
03:29 40.8 °F /  4.9 °C 39.7 °F /  4.3 °C 30.1in /  1019.6hPa Calm     96% 0in /  0.0mm 0 W/m2
03:35 40.8 °F /  4.9 °C 39.7 °F /  4.3 °C 30.1in /  1019.6hPa Calm     96% 0in /  0.0mm 0 W/m2
03:40 40.8 °F /  4.9 °C 39.7 °F /  4.3 °C 30.1in /  1019.6hPa Calm     96% 0in /  0.0mm 0 W/m2
03:45 40.8 °F /  4.9 °C 39.7 °F /  4.3 °C 30.1in /  1019.6hPa Calm     96% 0in /  0.0mm 0 W/m2
03:50 40.8 °F /  4.9 °C 39.7 °F /  4.3 °C 30.1in /  1019.6hPa Calm     96% 0in /  0.0mm 0 W/m2
03:55 40.8 °F /  4.9 °C 39.7 °F /  4.3 °C 30.1in /  1019.6hPa Calm     96% 0in /  0.0mm 0 W/m2
04:00 40.8 °F /  4.9 °C 39.7 °F /  4.3 °C 30.1in /  1019.3hPa Calm     96% 0in /  0.0mm 0 W/m2
04:05 40.8 °F /  4.9 °C 39.7 °F /  4.3 °C 30.1in /  1019.3hPa Calm     96% 0in /  0.0mm 0 W/m2
04:10 40.8 °F /  4.9 °C 39.7 °F /  4.3 °C 30.1in /  1019.3hPa Calm     96% 0in /  0.0mm 0 W/m2
04:15 40.8 °F /  4.9 °C 39.7 °F /  4.3 °C 30.1in /  1019.3hPa Calm     96% 0in /  0.0mm 0 W/m2
04:20 40.8 °F /  4.9 °C 40.1 °F /  4.5 °C 30.1in /  1019.3hPa Calm     97% 0in /  0.0mm 0 W/m2
04:25 40.8 °F /  4.9 °C 40.1 °F /  4.5 °C 30.1in /  1019.3hPa Calm     97% 0in /  0.0mm 0 W/m2
04:30 41 °F /  5 °C 40.3 °F /  4.6 °C 30.1in /  1019.3hPa Calm     97% 0in /  0.0mm 0 W/m2
04:35 41.2 °F /  5.1 °C 40.5 °F /  4.7 °C 30.1in /  1019.3hPa Calm     97% 0in /  0.0mm 0 W/m2
04:40 41.2 °F /  5.1 °C 40.5 °F /  4.7 °C 30.1in /  1019.3hPa Calm     97% 0in /  0.0mm 0 W/m2
04:45 41.2 °F /  5.1 °C 40.5 °F /  4.7 °C 30.1in /  1019.0hPa Calm     97% 0in /  0.0mm 0 W/m2
04:50 41.4 °F /  5.2 °C 40.6 °F /  4.8 °C 30.1in /  1019.3hPa Calm     97% 0in /  0.0mm 0 W/m2
04:55 41.5 °F /  5.3 °C 40.8 °F /  4.9 °C 30.1in /  1019.3hPa Calm     97% 0in /  0.0mm 0 W/m2
05:00 41.5 °F /  5.3 °C 40.8 °F /  4.9 °C 30.1in /  1019.3hPa Calm     97% 0in /  0.0mm 0 W/m2
05:05 41.5 °F /  5.3 °C 40.8 °F /  4.9 °C 30.1in /  1019.0hPa Calm     97% 0in /  0.0mm 0 W/m2
05:10 41.5 °F /  5.3 °C 40.8 °F /  4.9 °C 30.1in /  1019.3hPa Calm     97% 0in /  0.0mm 0 W/m2
05:15 41.5 °F /  5.3 °C 40.8 °F /  4.9 °C 30.1in /  1019.3hPa Calm     97% 0in /  0.0mm 0 W/m2
05:20 41.5 °F /  5.3 °C 40.8 °F /  4.9 °C 30.1in /  1019.3hPa Calm     97% 0in /  0.0mm 0 W/m2
05:25 41.5 °F /  5.3 °C 40.8 °F /  4.9 °C 30.1in /  1019.3hPa Calm     97% 0in /  0.0mm 0 W/m2
05:30 41.5 °F /  5.3 °C 40.8 °F /  4.9 °C 30.1in /  1019.3hPa Calm     97% 0in /  0.0mm 0 W/m2
05:35 41.5 °F /  5.3 °C 40.8 °F /  4.9 °C 30.1in /  1019.0hPa Calm     97% 0in /  0.0mm 0 W/m2
05:40 41.7 °F /  5.4 °C 41 °F /  5 °C 30.1in /  1019.0hPa Calm     97% 0in /  0.0mm 0 W/m2
05:45 41.7 °F /  5.4 °C 41 °F /  5 °C 30.1in /  1019.3hPa Calm     97% 0in /  0.0mm 0 W/m2
05:50 41.7 °F /  5.4 °C 41 °F /  5 °C 30.1in /  1019.0hPa Calm     97% 0in /  0.0mm 0 W/m2
05:55 41.7 °F /  5.4 °C 41 °F /  5 °C 30.1in /  1019.0hPa Calm     97% 0in /  0.0mm 0 W/m2
06:00 41.7 °F /  5.4 °C 41 °F /  5 °C 30.1in /  1019.3hPa Calm     97% 0in /  0.0mm 0 W/m2
06:05 41.9 °F /  5.5 °C 41.2 °F /  5.1 °C 30.1in /  1019.3hPa Calm     97% 0in /  0.0mm 0 W/m2
06:10 41.9 °F /  5.5 °C 41.2 °F /  5.1 °C 30.1in /  1019.3hPa Calm     97% 0in /  0.0mm 0 W/m2
06:15 42.1 °F /  5.6 °C 41.4 °F /  5.2 °C 30.1in /  1019.0hPa Calm     97% 0in /  0.0mm 0 W/m2
06:20 42.1 °F /  5.6 °C 41.4 °F /  5.2 °C 30.1in /  1019.0hPa Calm     97% 0in /  0.0mm 0 W/m2
06:25 42.1 °F /  5.6 °C 41.4 °F /  5.2 °C 30.1in /  1019.0hPa Calm     97% 0in /  0.0mm 0 W/m2
06:30 42.1 °F /  5.6 °C 41.4 °F /  5.2 °C 30.1in /  1019.0hPa Calm     97% 0in /  0.0mm 0 W/m2
06:35 42.1 °F /  5.6 °C 41.4 °F /  5.2 °C 30.1in /  1019.0hPa North 0.9mph /  1.4km/h 2mph /  3.2km/h 97% 0in /  0.0mm 0 W/m2
06:40 42.1 °F /  5.6 °C 41.4 °F /  5.2 °C 30.1in /  1019.0hPa Calm   1mph /  1.6km/h 97% 0in /  0.0mm 0 W/m2
06:45 42.1 °F /  5.6 °C 41.4 °F /  5.2 °C 30.1in /  1019.0hPa Calm     97% 0in /  0.0mm 0 W/m2
06:50 42.1 °F /  5.6 °C 41.4 °F /  5.2 °C 30.1in /  1018.6hPa Calm   1mph /  1.6km/h 97% 0in /  0.0mm 0 W/m2
06:55 42.1 °F /  5.6 °C 41.4 °F /  5.2 °C 30.1in /  1018.6hPa Calm     97% 0in /  0.0mm 0 W/m2
07:00 42.3 °F /  5.7 °C 41.5 °F /  5.3 °C 30.1in /  1018.6hPa Calm     97% 0in /  0.0mm 0 W/m2
07:05 42.3 °F /  5.7 °C 41.5 °F /  5.3 °C 30.1in /  1018.6hPa Calm     97% 0in /  0.0mm 0 W/m2
07:10 42.3 °F /  5.7 °C 41.5 °F /  5.3 °C 30.1in /  1018.6hPa Calm     97% 0in /  0.0mm 0 W/m2
07:15 42.3 °F /  5.7 °C 41.5 °F /  5.3 °C 30.1in /  1018.6hPa Calm     97% 0in /  0.0mm 0 W/m2
07:20 42.3 °F /  5.7 °C 41.5 °F /  5.3 °C 30.1in /  1018.6hPa Calm     97% 0in /  0.0mm 0 W/m2
07:25 42.3 °F /  5.7 °C 41.5 °F /  5.3 °C 30.1in /  1018.6hPa Calm   1mph /  1.6km/h 97% 0in /  0.0mm 0 W/m2
07:30 42.4 °F /  5.8 °C 41.7 °F /  5.4 °C 30.1in /  1018.6hPa North 0.9mph /  1.4km/h 1mph /  1.6km/h 97% 0in /  0.0mm 0 W/m2
07:35 42.4 °F /  5.8 °C 41.7 °F /  5.4 °C 30.1in /  1019.0hPa North 0.9mph /  1.4km/h 2mph /  3.2km/h 97% 0in /  0.0mm 0 W/m2
07:40 42.6 °F /  5.9 °C 41.9 °F /  5.5 °C 30.1in /  1019.0hPa West 2mph /  3.2km/h 3mph /  4.8km/h 97% 0in /  0.0mm 0 W/m2
07:45 42.6 °F /  5.9 °C 41.9 °F /  5.5 °C 30.1in /  1019.0hPa Calm   1mph /  1.6km/h 97% 0in /  0.0mm 0 W/m2
07:50 42.8 °F /  6 °C 42.1 °F /  5.6 °C 30.1in /  1019.0hPa Calm     97% 0in /  0.0mm 0 W/m2
07:55 43 °F /  6.1 °C 42.3 °F /  5.7 °C 30.1in /  1019.0hPa Calm     97% 0in /  0.0mm 5 W/m2
08:00 43.2 °F /  6.2 °C 42.4 °F /  5.8 °C 30.1in /  1019.0hPa Calm     97% 0in /  0.0mm 7 W/m2
08:05 43.2 °F /  6.2 °C 42.4 °F /  5.8 °C 30.1in /  1019.0hPa Calm     97% 0in /  0.0mm 7 W/m2
08:10 43.3 °F /  6.3 °C 42.6 °F /  5.9 °C 30.1in /  1019.0hPa Calm     97% 0in /  0.0mm 9 W/m2
08:15 43.3 °F /  6.3 °C 42.6 °F /  5.9 °C 30.1in /  1019.0hPa Calm     97% 0in /  0.0mm 11 W/m2
08:20 43.3 °F /  6.3 °C 42.6 °F /  5.9 °C 30.1in /  1019.0hPa Calm     97% 0in /  0.0mm 14 W/m2
08:25 43.3 °F /  6.3 °C 42.6 °F /  5.9 °C 30.1in /  1019.0hPa Calm     97% 0in /  0.0mm 19 W/m2
08:30 43.5 °F /  6.4 °C 42.8 °F /  6 °C 30.1in /  1018.6hPa Calm     97% 0in /  0.0mm 23 W/m2
08:35 43.5 °F /  6.4 °C 42.8 °F /  6 °C 30.1in /  1018.6hPa West 0.9mph /  1.4km/h 1mph /  1.6km/h 97% 0in /  0.0mm 25 W/m2
08:40 43.5 °F /  6.4 °C 42.8 °F /  6 °C 30.1in /  1018.6hPa Calm   1mph /  1.6km/h 97% 0in /  0.0mm 30 W/m2
08:45 43.5 °F /  6.4 °C 42.8 °F /  6 °C 30.1in /  1018.6hPa Calm     97% 0in /  0.0mm 26 W/m2
08:50 43.7 °F /  6.5 °C 43 °F /  6.1 °C 30.1in /  1018.6hPa Calm   1mph /  1.6km/h 97% 0in /  0.0mm 33 W/m2
08:55 43.9 °F /  6.6 °C 43.2 °F /  6.2 °C 30.1in /  1018.6hPa Calm   1mph /  1.6km/h 97% 0in /  0.0mm 32 W/m2
09:00 43.9 °F /  6.6 °C 43.2 °F /  6.2 °C 30.1in /  1018.6hPa Calm   1mph /  1.6km/h 97% 0in /  0.0mm 42 W/m2
09:05 44.1 °F /  6.7 °C 43.3 °F /  6.3 °C 30.1in /  1018.6hPa Calm     97% 0in /  0.0mm 39 W/m2
09:10 44.1 °F /  6.7 °C 43.3 °F /  6.3 °C 30.1in /  1019.0hPa Calm   1mph /  1.6km/h 97% 0in /  0.0mm 42 W/m2
09:15 44.1 °F /  6.7 °C 43.3 °F /  6.3 °C 30.1in /  1018.6hPa Calm     97% 0in /  0.0mm 42 W/m2
09:20 44.2 °F /  6.8 °C 43.5 °F /  6.4 °C 30.1in /  1018.6hPa Calm     97% 0in /  0.0mm 42 W/m2
09:25 44.2 °F /  6.8 °C 43.5 °F /  6.4 °C 30.1in /  1018.6hPa ESE 2mph /  3.2km/h 2mph /  3.2km/h 97% 0in /  0.0mm 56 W/m2
09:30 44.4 °F /  6.9 °C 43.7 °F /  6.5 °C 30.1in /  1018.6hPa Calm   1mph /  1.6km/h 97% 0in /  0.0mm 51 W/m2
09:35 44.6 °F /  7 °C 43.9 °F /  6.6 °C 30.1in /  1018.6hPa ESE 2mph /  3.2km/h 2mph /  3.2km/h 97% 0in /  0.0mm 40 W/m2
09:40 44.8 °F /  7.1 °C 44.1 °F /  6.7 °C 30.1in /  1019.0hPa Calm     97% 0in /  0.0mm 35 W/m2
09:45 44.8 °F /  7.1 °C 44.1 °F /  6.7 °C 30.1in /  1019.0hPa Calm   1mph /  1.6km/h 97% 0in /  0.0mm 30 W/m2
09:50 44.8 °F /  7.1 °C 44.1 °F /  6.7 °C 30.1in /  1019.0hPa Calm     97% 0in /  0.0mm 23 W/m2
09:55 45 °F /  7.2 °C 44.2 °F /  6.8 °C 30.1in /  1019.0hPa Calm     97% 0in /  0.0mm 21 W/m2
10:00 45 °F /  7.2 °C 44.2 °F /  6.8 °C 30.1in /  1019.0hPa Calm     97% 0in /  0.0mm 23 W/m2
10:05 45 °F /  7.2 °C 44.2 °F /  6.8 °C 30.1in /  1019.0hPa WSW 0.9mph /  1.4km/h 2mph /  3.2km/h 97% 0in /  0.0mm 33 W/m2
10:10 45.1 °F /  7.3 °C 44.4 °F /  6.9 °C 30.1in /  1019.0hPa Calm   2mph /  3.2km/h 97% 0in /  0.0mm 40 W/m2
10:16 45.1 °F /  7.3 °C 44.4 °F /  6.9 °C 30.1in /  1018.6hPa Calm   1mph /  1.6km/h 97% 0in /  0.0mm 53 W/m2
10:21 45.3 °F /  7.4 °C 44.6 °F /  7 °C 30.1in /  1018.6hPa Calm     97% 0in /  0.0mm 76 W/m2
10:26 45.5 °F /  7.5 °C 44.8 °F /  7.1 °C 30.1in /  1018.6hPa Calm   1mph /  1.6km/h 97% 0in /  0.0mm 72 W/m2
10:31 45.7 °F /  7.6 °C 45 °F /  7.2 °C 30.1in /  1018.6hPa Calm     97% 0in /  0.0mm 83 W/m2
10:36 45.9 °F /  7.7 °C 45.1 °F /  7.3 °C 30.1in /  1018.6hPa Calm     97% 0in /  0.0mm 81 W/m2
10:41 46.2 °F /  7.9 °C 45.5 °F /  7.5 °C 30.1in /  1018.6hPa Calm     97% 0in /  0.0mm 93 W/m2
10:46 46.4 °F /  8 °C 45.7 °F /  7.6 °C 30.1in /  1019.0hPa Calm     97% 0in /  0.0mm 125 W/m2
10:51 46.6 °F /  8.1 °C 45.9 °F /  7.7 °C 30.1in /  1019.0hPa West 0.9mph /  1.4km/h 2mph /  3.2km/h 97% 0in /  0.0mm 123 W/m2
10:56 46.8 °F /  8.2 °C 46 °F /  7.8 °C 30.1in /  1019.0hPa Calm     97% 0in /  0.0mm 93 W/m2
11:01 46.9 °F /  8.3 °C 46.2 °F /  7.9 °C 30.1in /  1019.0hPa Calm     97% 0in /  0.0mm 130 W/m2
11:06 47.3 °F /  8.5 °C 46.6 °F /  8.1 °C 30.1in /  1018.6hPa Calm     97% 0in /  0.0mm 144 W/m2
11:11 47.7 °F /  8.7 °C 46.9 °F /  8.3 °C 30.1in /  1018.6hPa West 0.9mph /  1.4km/h 1mph /  1.6km/h 97% 0in /  0.0mm 118 W/m2
11:16 48 °F /  8.9 °C 47.1 °F /  8.4 °C 30.1in /  1018.6hPa NE 2mph /  3.2km/h 2mph /  3.2km/h 97% 0in /  0.0mm 149 W/m2
11:21 48.4 °F /  9.1 °C 47.5 °F /  8.6 °C 30.1in /  1018.6hPa ENE 0.9mph /  1.4km/h 2mph /  3.2km/h 97% 0in /  0.0mm 165 W/m2
11:26 48.7 °F /  9.3 °C 47.7 °F /  8.7 °C 30.1in /  1018.6hPa Calm     96% 0in /  0.0mm 158 W/m2
11:31 49.1 °F /  9.5 °C 48 °F /  8.9 °C 30.1in /  1018.6hPa Calm   2mph /  3.2km/h 96% 0in /  0.0mm 148 W/m2
11:36 49.3 °F /  9.6 °C 48.2 °F /  9 °C 30.1in /  1018.6hPa Calm   1mph /  1.6km/h 96% 0in /  0.0mm 118 W/m2
11:41 49.6 °F /  9.8 °C 48.2 °F /  9 °C 30.1in /  1018.6hPa Calm     95% 0in /  0.0mm 104 W/m2
11:46 49.8 °F /  9.9 °C 48.4 °F /  9.1 °C 30.1in /  1018.6hPa Calm   1mph /  1.6km/h 95% 0in /  0.0mm 109 W/m2
11:51 50.2 °F /  10.1 °C 48.7 °F /  9.3 °C 30.1in /  1018.6hPa Calm     95% 0in /  0.0mm 93 W/m2
11:56 50.4 °F /  10.2 °C 48.9 °F /  9.4 °C 30.1in /  1018.3hPa Calm   1mph /  1.6km/h 95% 0in /  0.0mm 74 W/m2
12:01 50.7 °F /  10.4 °C 49.1 °F /  9.5 °C 30.1in /  1018.3hPa Calm   2mph /  3.2km/h 94% 0in /  0.0mm 77 W/m2
12:06 50.9 °F /  10.5 °C 49.3 °F /  9.6 °C 30.1in /  1018.3hPa Calm     94% 0in /  0.0mm 113 W/m2
12:11 51.3 °F /  10.7 °C 49.6 °F /  9.8 °C 30.1in /  1018.3hPa Calm   2mph /  3.2km/h 94% 0in /  0.0mm 139 W/m2
12:16 51.4 °F /  10.8 °C 49.5 °F /  9.7 °C 30.1in /  1018.3hPa Calm     93% 0in /  0.0mm 148 W/m2
12:21 51.6 °F /  10.9 °C 49.6 °F /  9.8 °C 30.1in /  1018.3hPa Calm     93% 0in /  0.0mm 151 W/m2
12:26 52 °F /  11.1 °C 50 °F /  10 °C 30.1in /  1018.3hPa Calm     93% 0in /  0.0mm 142 W/m2
12:31 52.2 °F /  11.2 °C 49.8 °F /  9.9 °C 30.1in /  1018.3hPa Calm     92% 0in /  0.0mm 156 W/m2
12:36 52.5 °F /  11.4 °C 50.2 °F /  10.1 °C 30.1in /  1018.0hPa ENE 0.9mph /  1.4km/h 2mph /  3.2km/h 92% 0in /  0.0mm 120 W/m2
12:41 52.9 °F /  11.6 °C 50.5 °F /  10.3 °C 30.1in /  1018.0hPa East 2mph /  3.2km/h 3mph /  4.8km/h 92% 0in /  0.0mm 142 W/m2
12:46 53.2 °F /  11.8 °C 50.7 °F /  10.4 °C 30.1in /  1018.0hPa Calm   3mph /  4.8km/h 91% 0in /  0.0mm 178 W/m2
12:51 53.4 °F /  11.9 °C 50.9 °F /  10.5 °C 30.1in /  1018.0hPa Calm   2mph /  3.2km/h 91% 0in /  0.0mm 169 W/m2
12:56 54 °F /  12.2 °C 51.1 °F /  10.6 °C 30.1in /  1018.0hPa Calm   3mph /  4.8km/h 90% 0in /  0.0mm 155 W/m2
13:01 54.3 °F /  12.4 °C 51.4 °F /  10.8 °C 30.1in /  1018.0hPa ESE 2mph /  3.2km/h 6mph /  9.7km/h 90% 0in /  0.0mm 151 W/m2
13:06 54.7 °F /  12.6 °C 51.4 °F /  10.8 °C 30.1in /  1017.6hPa ESE 0.9mph /  1.4km/h 3mph /  4.8km/h 89% 0in /  0.0mm 160 W/m2
13:11 55 °F /  12.8 °C 51.6 °F /  10.9 °C 30.1in /  1017.6hPa Calm   6mph /  9.7km/h 88% 0in /  0.0mm 165 W/m2
13:16 55.6 °F /  13.1 °C 51.8 °F /  11 °C 30.1in /  1017.6hPa NE 4mph /  6.4km/h 4mph /  6.4km/h 87% 0in /  0.0mm 158 W/m2
13:21 55.9 °F /  13.3 °C 51.8 °F /  11 °C 30.1in /  1017.6hPa NE 2.9mph /  4.7km/h 3mph /  4.8km/h 86% 0in /  0.0mm 149 W/m2
13:26 56.7 °F /  13.7 °C 51.8 °F /  11 °C 30.1in /  1017.6hPa Calm   3mph /  4.8km/h 84% 0in /  0.0mm 179 W/m2
13:31 57 °F /  13.9 °C 52.2 °F /  11.2 °C 30.1in /  1017.6hPa ENE 2mph /  3.2km/h 2mph /  3.2km/h 84% 0in /  0.0mm 142 W/m2
13:36 57.6 °F /  14.2 °C 52.2 °F /  11.2 °C 30.1in /  1017.6hPa NNE 0.9mph /  1.4km/h 3mph /  4.8km/h 82% 0in /  0.0mm 139 W/m2
13:41 57.9 °F /  14.4 °C 52.2 °F /  11.2 °C 30.1in /  1017.6hPa ENE 0.9mph /  1.4km/h 3mph /  4.8km/h 81% 0in /  0.0mm 137 W/m2
13:46 58.3 °F /  14.6 °C 52.2 °F /  11.2 °C 30.1in /  1017.6hPa NW 0.9mph /  1.4km/h 3mph /  4.8km/h 80% 0in /  0.0mm 165 W/m2
13:51 58.5 °F /  14.7 °C 52 °F /  11.1 °C 30.1in /  1017.6hPa NE 0.9mph /  1.4km/h 2mph /  3.2km/h 79% 0in /  0.0mm 135 W/m2
13:56 58.6 °F /  14.8 °C 52.2 °F /  11.2 °C 30.1in /  1017.6hPa ENE 0.9mph /  1.4km/h 4mph /  6.4km/h 79% 0in /  0.0mm 146 W/m2
14:01 58.8 °F /  14.9 °C 52 °F /  11.1 °C 30.1in /  1017.6hPa West 2.9mph /  4.7km/h 4mph /  6.4km/h 78% 0in /  0.0mm 121 W/m2
14:06 58.8 °F /  14.9 °C 52 °F /  11.1 °C 30.1in /  1017.6hPa WNW 0.9mph /  1.4km/h 2mph /  3.2km/h 78% 0in /  0.0mm 98 W/m2
14:11 58.8 °F /  14.9 °C 52 °F /  11.1 °C 30.1in /  1017.6hPa NNW 0.9mph /  1.4km/h 3mph /  4.8km/h 78% 0in /  0.0mm 116 W/m2
14:16 58.8 °F /  14.9 °C 52 °F /  11.1 °C 30.1in /  1017.6hPa NNW 2mph /  3.2km/h 3mph /  4.8km/h 78% 0in /  0.0mm 128 W/m2
14:21 58.8 °F /  14.9 °C 52 °F /  11.1 °C 30in /  1017.3hPa WNW 4mph /  6.4km/h 4mph /  6.4km/h 78% 0in /  0.0mm 104 W/m2
14:26 58.8 °F /  14.9 °C 52 °F /  11.1 °C 30.1in /  1017.6hPa NE 4mph /  6.4km/h 4mph /  6.4km/h 78% 0in /  0.0mm 90 W/m2
14:31 58.8 °F /  14.9 °C 52 °F /  11.1 °C 30.1in /  1017.6hPa WSW 2.9mph /  4.7km/h 4mph /  6.4km/h 78% 0in /  0.0mm 100 W/m2
14:36 58.8 °F /  14.9 °C 52 °F /  11.1 °C 30.1in /  1017.6hPa SW 2.9mph /  4.7km/h 3mph /  4.8km/h 78% 0in /  0.0mm 58 W/m2
14:41 58.8 °F /  14.9 °C 52 °F /  11.1 °C 30.1in /  1017.6hPa West 2.9mph /  4.7km/h 5mph /  8km/h 78% 0in /  0.0mm 77 W/m2
14:46 58.8 °F /  14.9 °C 52 °F /  11.1 °C 30.1in /  1017.6hPa SE 2mph /  3.2km/h 4mph /  6.4km/h 78% 0in /  0.0mm 56 W/m2
14:51 58.6 °F /  14.8 °C 51.8 °F /  11 °C 30.1in /  1017.6hPa WSW 2.9mph /  4.7km/h 5mph /  8km/h 78% 0in /  0.0mm 33 W/m2
14:56 58.5 °F /  14.7 °C 52 °F /  11.1 °C 30.1in /  1017.6hPa WSW 4mph /  6.4km/h 6mph /  9.7km/h 79% 0in /  0.0mm 40 W/m2
15:01 57.9 °F /  14.4 °C 51.8 °F /  11 °C 30.1in /  1017.6hPa Calm   5mph /  8km/h 80% 0in /  0.0mm 44 W/m2
15:06 57.6 °F /  14.2 °C 52.2 °F /  11.2 °C 30.1in /  1017.6hPa Calm   8mph /  12.9km/h 82% 0in /  0.0mm 40 W/m2
15:11 57.2 °F /  14 °C 52.2 °F /  11.2 °C 30.1in /  1017.6hPa Calm   4mph /  6.4km/h 83% 0in /  0.0mm 49 W/m2
15:16 56.8 °F /  13.8 °C 52 °F /  11.1 °C 30.1in /  1017.6hPa Calm   7mph /  11.3km/h 84% 0in /  0.0mm 42 W/m2
15:21 56.8 °F /  13.8 °C 52.3 °F /  11.3 °C 30.1in /  1017.6hPa Calm   2mph /  3.2km/h 85% 0in /  0.0mm 42 W/m2
15:26 56.7 °F /  13.7 °C 52.2 °F /  11.2 °C 30.1in /  1017.6hPa Calm   1mph /  1.6km/h 85% 0in /  0.0mm 40 W/m2
15:32 56.7 °F /  13.7 °C 52.5 °F /  11.4 °C 30.1in /  1017.6hPa NE 0.9mph /  1.4km/h 1mph /  1.6km/h 86% 0in /  0.0mm 37 W/m2
15:37 56.5 °F /  13.6 °C 52.3 °F /  11.3 °C 30.1in /  1017.6hPa NE 0.9mph /  1.4km/h 1mph /  1.6km/h 86% 0in /  0.0mm 35 W/m2
15:42 56.5 °F /  13.6 °C 52.7 °F /  11.5 °C 30.1in /  1017.6hPa Calm   2mph /  3.2km/h 87% 0in /  0.0mm 23 W/m2
15:47 56.3 °F /  13.5 °C 52.9 °F /  11.6 °C 30.1in /  1017.6hPa Calm     88% 0in /  0.0mm 39 W/m2
15:52 56.1 °F /  13.4 °C 52.7 °F /  11.5 °C 30.1in /  1017.6hPa Calm   1mph /  1.6km/h 88% 0in /  0.0mm 30 W/m2
15:57 56.1 °F /  13.4 °C 52.7 °F /  11.5 °C 30.1in /  1017.6hPa Calm     88% 0in /  0.0mm 30 W/m2
16:02 56.1 °F /  13.4 °C 52.9 °F /  11.6 °C 30.1in /  1017.6hPa Calm   1mph /  1.6km/h 89% 0in /  0.0mm 33 W/m2
16:07 55.9 °F /  13.3 °C 52.7 °F /  11.5 °C 30.1in /  1017.6hPa Calm     89% 0in /  0.0mm 28 W/m2
16:12 55.9 °F /  13.3 °C 52.7 °F /  11.5 °C 30.1in /  1017.6hPa Calm     89% 0in /  0.0mm 19 W/m2
16:17 55.9 °F /  13.3 °C 52.7 °F /  11.5 °C 30.1in /  1017.6hPa Calm     89% 0in /  0.0mm 12 W/m2
16:22 55.8 °F /  13.2 °C 52.9 °F /  11.6 °C 30.1in /  1017.6hPa Calm     90% 0in /  0.0mm 9 W/m2
16:27 55.8 °F /  13.2 °C 52.9 °F /  11.6 °C 30.1in /  1017.6hPa Calm   1mph /  1.6km/h 90% 0in /  0.0mm 7 W/m2
16:32 55.6 °F /  13.1 °C 52.7 °F /  11.5 °C 30.1in /  1017.6hPa Calm     90% 0in /  0.0mm 5 W/m2
16:37 55.6 °F /  13.1 °C 52.7 °F /  11.5 °C 30.1in /  1017.6hPa Calm   1mph /  1.6km/h 90% 0in /  0.0mm 0 W/m2
16:42 55.4 °F /  13 °C 52.9 °F /  11.6 °C 30.1in /  1017.6hPa Calm     91% 0in /  0.0mm 5 W/m2
16:47 55.2 °F /  12.9 °C 52.7 °F /  11.5 °C 30.1in /  1017.6hPa Calm     91% 0in /  0.0mm 5 W/m2
16:52 55.2 °F /  12.9 °C 52.7 °F /  11.5 °C 30.1in /  1017.6hPa Calm     91% 0in /  0.0mm 0 W/m2
16:57 55 °F /  12.8 °C 52.5 °F /  11.4 °C 30.1in /  1017.6hPa Calm     91% 0in /  0.0mm 0 W/m2
17:02 55 °F /  12.8 °C 52.5 °F /  11.4 °C 30.1in /  1017.6hPa Calm     91% 0in /  0.0mm 0 W/m2
17:07 54.9 °F /  12.7 °C 52.3 °F /  11.3 °C 30.1in /  1017.6hPa Calm     91% 0in /  0.0mm 0 W/m2
17:12 54.9 °F /  12.7 °C 52.5 °F /  11.4 °C 30.1in /  1017.6hPa Calm     92% 0in /  0.0mm 0 W/m2
17:17 54.7 °F /  12.6 °C 52.2 °F /  11.2 °C 30.1in /  1017.6hPa Calm     91% 0in /  0.0mm 0 W/m2
17:22 54.5 °F /  12.5 °C 52.2 °F /  11.2 °C 30.1in /  1017.6hPa Calm     92% 0in /  0.0mm 0 W/m2
17:27 54.3 °F /  12.4 °C 52 °F /  11.1 °C 30.1in /  1018.0hPa Calm     92% 0in /  0.0mm 0 W/m2
17:32 54.1 °F /  12.3 °C 51.8 °F /  11 °C 30.1in /  1018.0hPa Calm     92% 0in /  0.0mm 0 W/m2
17:37 54 °F /  12.2 °C 51.6 °F /  10.9 °C 30.1in /  1018.0hPa Calm     92% 0in /  0.0mm 0 W/m2
17:42 54 °F /  12.2 °C 51.6 °F /  10.9 °C 30.1in /  1018.0hPa Calm     92% 0in /  0.0mm 0 W/m2
17:47 53.8 °F /  12.1 °C 51.4 °F /  10.8 °C 30.1in /  1018.0hPa Calm     92% 0in /  0.0mm 0 W/m2
17:52 53.8 °F /  12.1 °C 51.4 °F /  10.8 °C 30.1in /  1018.0hPa Calm     92% 0in /  0.0mm 0 W/m2
17:57 53.6 °F /  12 °C 51.3 °F /  10.7 °C 30.1in /  1018.0hPa Calm     92% 0in /  0.0mm 0 W/m2
18:02 53.4 °F /  11.9 °C 51.4 °F /  10.8 °C 30.1in /  1018.0hPa Calm     93% 0in /  0.0mm 0 W/m2
18:07 53.4 °F /  11.9 °C 51.4 °F /  10.8 °C 30.1in /  1018.0hPa Calm     93% 0in /  0.0mm 0 W/m2
18:12 53.4 °F /  11.9 °C 51.4 °F /  10.8 °C 30.1in /  1018.0hPa Calm     93% 0in /  0.0mm 0 W/m2
18:17 53.4 °F /  11.9 °C 51.4 °F /  10.8 °C 30.1in /  1018.0hPa Calm     93% 0in /  0.0mm 0 W/m2
18:22 53.4 °F /  11.9 °C 51.4 °F /  10.8 °C 30.1in /  1018.0hPa Calm     93% 0in /  0.0mm 0 W/m2
18:27 53.2 °F /  11.8 °C 51.3 °F /  10.7 °C 30.1in /  1018.0hPa Calm     93% 0in /  0.0mm 0 W/m2
18:32 53.2 °F /  11.8 °C 51.3 °F /  10.7 °C 30.1in /  1018.0hPa Calm     93% 0in /  0.0mm 0 W/m2
18:37 53.2 °F /  11.8 °C 51.3 °F /  10.7 °C 30.1in /  1018.0hPa Calm     93% 0in /  0.0mm 0 W/m2
18:42 53.2 °F /  11.8 °C 51.3 °F /  10.7 °C 30.1in /  1018.0hPa Calm     93% 0in /  0.0mm 0 W/m2
18:47 53.2 °F /  11.8 °C 51.3 °F /  10.7 °C 30.1in /  1018.0hPa Calm     93% 0in /  0.0mm 0 W/m2
18:52 53.2 °F /  11.8 °C 51.3 °F /  10.7 °C 30.1in /  1018.3hPa Calm     93% 0in /  0.0mm 0 W/m2
18:57 53.1 °F /  11.7 °C 51.1 °F /  10.6 °C 30.1in /  1018.3hPa NE 0.9mph /  1.4km/h 1mph /  1.6km/h 93% 0in /  0.0mm 0 W/m2
19:02 53.1 °F /  11.7 °C 51.1 °F /  10.6 °C 30.1in /  1018.3hPa Calm     93% 0in /  0.0mm 0 W/m2
19:07 52.9 °F /  11.6 °C 50.9 °F /  10.5 °C 30.1in /  1018.3hPa NE 0.9mph /  1.4km/h 2mph /  3.2km/h 93% 0in /  0.0mm 0 W/m2
Juneau County Weather
Compliments of Weather Underground - 4 mb